Date,TemperatureHighF,TemperatureAvgF,TemperatureLowF,DewpointHighF,DewpointAvgF,DewpointLowF,HumidityHigh,HumidityAvg,HumidityLow,PressureMaxIn,PressureMinIn,WindSpeedMaxMPH,WindSpeedAvgMPH,GustSpeedMaxMPH,PrecipitationSumIn
2013-1-1,38.7,33.1,23.2,30.4,24.2,14.2,82,70,57,29.85,29.68,8,1,8,0.03
2013-1-2,32.4,23.3,14.7,18.2,12.7,7.3,73,64,53,30.01,29.83,6,1,7,0.03
2013-1-3,24.4,17.7,9.9,12.5,5.6,-0.6,70,59,47,30.08,29.95,9,0,9,0.01
2013-1-4,38.8,29.5,14.9,28.3,21.0,8.4,82,71,56,29.95,29.78,13,2,13,0.15
2013-1-5,43.2,32.4,23.0,26.9,22.0,17.2,79,66,47,30.21,29.82,6,2,6,0.22
2013-1-6,42.3,32.7,23.0,35.4,27.4,17.5,86,81,74,30.17,29.88,8,1,8,0.18
2013-1-7,41.2,31.9,22.6,32.3,26.3,18.5,88,80,67,30.36,29.90,16,1,16,0.05
2013-1-8,46.6,37.7,22.6,36.3,31.6,18.5,90,79,62,30.34,30.24,17,4,17,0.01
2013-1-9,45.7,37.3,25.0,42.0,33.1,21.5,89,85,74,30.34,29.97,9,1,9,0.00
2013-1-10,47.1,39.4,29.7,35.4,26.4,20.6,75,60,42,30.44,30.01,14,1,14,0.00
2013-1-11,44.6,35.8,26.4,35.7,29.0,20.7,89,76,65,30.44,30.15,9,1,9,0.09
2013-1-12,47.3,42.8,38.7,42.9,39.4,35.2,91,88,80,30.18,30.06,8,1,8,0.02
2013-1-13,51.3,46.1,42.8,48.1,43.4,40.1,93,90,88,30.11,29.98,6,3,6,0.02
2013-1-14,57.4,50.4,43.0,55.4,47.2,33.7,94,89,63,30.18,29.90,12,3,13,0.02
2013-1-15,43.9,40.3,38.1,38.9,35.7,34.2,89,84,76,30.22,30.13,8,1,8,0.16
2013-1-16,42.1,39.7,37.0,39.5,36.8,34.2,92,89,81,30.16,29.66,9,2,9,0.71
2013-1-17,44.6,37.5,31.3,34.6,31.4,25.6,91,79,61,30.00,29.80,10,2,10,0.00
2013-1-18,34.5,23.4,12.2,26.4,9.8,-0.1,90,58,33,30.42,29.94,17,4,17,0.06
2013-1-19,47.1,37.4,12.2,40.6,30.2,4.9,88,75,67,30.38,29.90,21,5,21,0.08
2013-1-20,52.0,45.3,30.4,43.8,35.0,13.5,88,68,45,29.90,29.54,20,6,20,0.00
2013-1-21,33.8,28.8,23.4,25.7,15.2,8.0,85,58,38,30.05,29.69,6,1,7,0.00
2013-1-22,29.7,22.6,13.5,25.7,11.3,-0.2,86,63,37,30.01,29.65,13,2,13,0.10
2013-1-23,18.7,12.7,8.8,1.3,-2.9,-6.8,66,50,38,30.09,29.99,8,3,8,0.01
2013-1-24,19.8,12.5,4.5,-2.3,-5.2,-8.4,56,45,34,30.14,29.97,14,2,14,0.01
2013-1-25,28.0,18.2,9.0,11.3,0.4,-7.1,65,45,33,30.24,29.98,6,1,6,0.00
2013-1-26,27.7,20.8,14.7,14.7,8.8,-2.9,79,61,39,30.14,29.90,12,2,12,0.01
2013-1-27,30.9,20.0,13.5,7.5,3.6,-0.6,60,49,34,30.40,30.14,15,2,15,0.01
2013-1-28,34.9,25.0,11.1,28.7,14.1,0.4,84,64,39,30.39,29.93,6,1,6,0.00
2013-1-29,39.2,35.7,33.1,34.6,31.6,28.5,88,85,82,30.15,29.92,7,1,7,0.19
2013-1-30,53.6,45.0,36.3,51.3,42.5,33.1,94,91,88,30.11,29.52,20,5,20,0.07
2013-1-31,54.0,46.5,32.7,52.6,39.3,15.6,95,77,48,29.56,29.04,21,6,21,0.37
2013-2-1,35.6,30.3,24.3,17.7,12.9,8.0,62,48,39,30.03,29.56,10,1,10,0.00
2013-2-2,32.0,27.0,19.4,24.3,13.1,6.2,78,56,38,30.20,29.99,12,2,13,0.00
2013-2-3,35.6,28.8,24.3,26.1,22.6,18.1,86,78,67,29.99,29.61,12,2,12,0.04
2013-2-4,34.0,27.3,21.9,21.3,14.6,9.2,81,60,39,29.90,29.63,9,2,9,0.00
2013-2-5,30.7,26.9,23.7,26.9,18.2,11.8,86,70,59,29.97,29.85,8,1,8,0.00
2013-2-6,41.7,33.5,27.7,31.6,25.1,11.3,86,72,50,30.21,29.83,9,1,9,0.04
2013-2-7,31.3,26.1,19.8,21.2,11.5,6.7,72,54,37,30.46,30.21,14,2,14,0.00
2013-2-8,34.5,32.6,29.1,31.5,28.1,20.9,93,84,71,30.41,29.25,20,5,20,0.19
2013-2-9,32.0,20.8,15.8,30.2,18.3,12.9,93,90,88,30.06,29.24,18,3,18,0.19
2013-2-10,31.8,22.1,12.2,28.5,19.0,9.3,89,87,81,30.33,30.06,4,0,4,0.21
2013-2-11,44.6,32.9,13.3,42.7,30.6,9.9,94,91,86,30.31,29.55,16,2,16,0.73
2013-2-12,47.1,39.1,30.7,41.0,31.3,23.9,94,75,49,29.83,29.54,7,1,7,0.00
2013-2-13,43.7,33.3,26.8,28.2,24.4,21.3,82,71,52,29.83,29.59,10,1,10,0.00
2013-2-14,43.2,34.0,25.2,34.2,26.6,20.3,90,75,49,29.97,29.61,11,1,12,0.24
2013-2-15,47.1,34.6,24.1,38.6,29.6,20.5,91,82,68,30.00,29.89,12,2,12,0.00
2013-2-16,40.3,33.1,26.2,33.6,29.6,22.9,92,87,75,29.90,29.55,14,2,14,0.09
2013-2-17,34.7,25.4,19.9,31.3,17.9,4.5,91,75,45,29.59,29.22,19,4,20,0.06
2013-2-18,33.6,24.2,16.2,9.4,5.7,2.2,55,45,30,30.11,29.59,11,2,12,0.17
2013-2-19,47.3,36.0,21.7,41.6,27.3,7.7,93,71,49,30.12,29.53,16,3,16,0.75
2013-2-20,42.3,35.0,26.2,39.5,23.6,12.0,91,65,43,29.73,29.49,10,1,10,0.17
2013-2-21,37.8,30.1,25.5,22.6,16.3,13.8,70,57,42,30.05,29.71,12,2,12,0.00
2013-2-22,41.4,34.6,30.2,28.9,25.5,20.2,78,69,56,30.30,30.04,11,2,12,0.00
2013-2-23,41.5,36.5,31.1,36.7,30.6,25.3,92,79,68,30.28,29.79,11,2,11,0.39
2013-2-24,45.0,39.5,33.1,42.5,37.2,31.0,93,91,89,29.79,29.50,17,4,17,1.11
2013-2-25,42.8,34.3,25.5,31.9,28.0,21.4,92,79,59,30.19,29.78,9,2,9,0.25
2013-2-26,45.0,34.3,22.6,34.3,26.4,18.8,87,74,52,30.28,30.07,10,1,10,0.01
2013-2-27,44.2,42.5,39.4,42.3,40.0,33.4,93,91,79,30.07,29.50,20,6,21,0.88
2013-2-28,47.5,41.3,36.7,41.1,37.4,33.2,93,86,77,29.59,29.44,7,1,7,0.00
2013-3-1,44.2,38.8,35.6,35.4,32.9,30.8,90,80,63,29.61,29.43,13,2,13,0.01
2013-3-2,45.1,38.7,34.9,31.7,29.9,28.1,79,71,59,29.61,29.55,8,1,8,0.00
2013-3-3,45.3,38.2,34.2,32.3,29.3,27.1,81,71,57,29.56,29.49,9,1,9,0.00
2013-3-4,44.4,36.6,30.6,29.1,25.8,23.1,83,66,47,29.63,29.49,10,2,10,0.00
2013-3-5,44.1,37.2,31.6,35.7,29.4,24.0,85,73,62,29.98,29.63,18,3,18,0.00
2013-3-6,43.0,38.1,31.5,35.4,33.1,27.5,90,82,70,30.00,29.85,24,6,24,0.04
2013-3-7,37.6,35.8,34.2,34.4,33.3,32.1,92,91,87,29.85,29.78,22,8,22,1.83
2013-3-8,40.1,35.4,32.9,34.1,32.1,30.8,93,88,71,29.99,29.76,19,6,19,1.34
2013-3-9,40.3,36.9,32.5,32.8,30.8,28.8,87,79,72,30.25,29.98,18,4,18,0.08
2013-3-10,45.9,38.7,30.9,34.1,31.6,27.5,90,76,62,30.33,30.24,10,2,10,0.00
2013-3-11,49.3,41.4,36.1,41.0,36.0,30.6,90,81,72,30.28,30.13,11,3,12,0.00
2013-3-12,51.1,47.4,41.9,48.1,44.4,38.9,93,89,83,30.13,29.70,20,7,20,0.81
2013-3-13,54.9,47.1,33.4,49.7,38.4,24.3,93,73,46,29.72,29.58,12,2,13,0.62
2013-3-14,42.6,32.8,25.3,27.1,19.5,7.6,80,59,40,29.69,29.57,9,1,9,0.00
2013-3-15,41.5,31.7,21.9,26.6,15.5,7.2,71,52,32,29.75,29.54,12,2,12,0.00
2013-3-16,42.8,35.7,28.0,26.9,21.5,17.9,73,57,42,29.74,29.55,8,1,8,0.00
2013-3-17,43.3,34.3,26.8,24.4,19.4,11.8,70,55,37,30.23,29.73,14,1,14,0.00
2013-3-18,39.6,31.7,21.7,24.7,16.6,6.6,68,53,44,30.39,30.17,11,2,12,0.00
2013-3-19,45.0,37.6,32.0,42.5,34.5,24.3,92,89,67,30.18,29.41,23,6,23,0.83
2013-3-20,44.8,34.9,26.8,30.3,23.7,19.0,88,65,40,29.77,29.57,11,2,12,0.00
2013-3-21,43.0,33.5,25.7,29.9,25.9,19.0,90,74,50,29.77,29.51,12,2,16,0.00
2013-3-22,44.6,35.1,28.2,30.2,25.7,20.9,90,70,44,29.68,29.51,8,1,8,0.52
2013-3-23,46.8,37.0,28.0,27.0,21.5,18.3,74,55,35,29.71,29.58,10,2,13,0.00
2013-3-24,47.8,38.6,29.3,27.8,23.3,19.4,71,55,43,29.77,29.68,13,2,13,0.00
2013-3-25,49.1,37.7,28.6,34.7,28.0,20.9,84,69,45,29.70,29.38,21,5,21,0.00
2013-3-26,49.3,40.0,32.7,32.7,28.1,24.0,84,64,39,29.71,29.38,16,4,18,0.00
2013-3-27,55.8,41.8,26.8,34.2,27.3,19.5,80,58,36,29.78,29.68,9,2,9,0.00
2013-3-28,44.2,40.0,37.4,36.9,34.6,30.5,90,81,61,29.96,29.77,14,3,14,0.14
2013-3-29,58.5,45.3,33.6,39.6,34.0,28.1,82,66,46,29.97,29.92,10,1,10,0.00
2013-3-30,56.3,44.6,31.6,36.9,32.3,25.4,78,63,45,30.04,29.96,11,2,12,0.00
2013-3-31,59.4,43.3,26.4,41.5,33.0,22.0,85,69,38,30.07,29.87,14,2,15,0.00
2013-4-1,59.4,50.3,36.7,46.8,40.1,18.8,83,68,45,29.87,29.52,19,4,19,0.06
2013-4-2,46.0,36.9,27.5,23.1,17.2,9.7,62,45,30,29.92,29.72,14,2,14,0.00
2013-4-3,49.3,38.6,30.6,19.9,15.9,13.5,54,40,27,30.09,29.88,10,2,12,0.00
2013-4-4,50.4,39.2,27.5,32.2,21.9,13.2,78,51,32,30.24,30.05,15,3,15,0.00
2013-4-5,53.6,43.6,38.3,44.8,36.7,30.8,84,77,65,30.05,29.59,14,2,14,0.08
2013-4-6,46.2,38.6,29.8,31.2,19.8,12.7,70,49,28,30.29,29.79,14,3,14,0.00
2013-4-7,52.2,40.6,25.5,41.1,31.3,19.3,85,70,47,30.28,30.01,20,5,20,0.00
2013-4-8,46.4,46.2,44.2,42.7,42.1,37.8,87,86,77,30.06,29.99,14,8,14,0.00
2013-4-9,73.0,54.3,45.1,55.2,45.7,38.4,91,74,52,30.06,29.79,10,3,10,0.01
2013-4-10,60.4,50.1,44.8,48.5,43.6,40.1,90,79,62,29.98,29.80,11,3,12,0.38
2013-4-11,54.7,47.6,44.6,44.1,40.1,33.1,91,76,56,30.07,29.74,14,3,14,0.04
2013-4-12,44.6,42.3,38.8,40.5,34.9,28.2,92,76,57,30.09,29.61,18,5,18,1.15
2013-4-13,51.8,43.3,39.0,40.5,37.8,33.8,92,81,63,29.89,29.60,22,4,22,0.03
2013-4-14,61.0,47.3,37.0,44.1,35.9,25.8,90,67,40,30.14,29.87,12,1,12,0.00
2013-4-15,55.8,44.7,34.0,40.9,34.9,25.8,84,69,53,30.37,30.14,10,2,12,0.08
2013-4-16,57.9,48.3,35.1,48.3,41.6,31.0,90,78,64,30.37,30.07,20,5,20,0.00
2013-4-17,63.9,53.4,37.9,50.9,42.4,31.4,90,69,37,30.27,30.03,15,3,15,0.02
2013-4-18,58.5,47.3,32.7,45.8,37.5,28.3,88,70,52,30.37,30.12,14,3,14,0.00
2013-4-19,59.9,53.0,50.2,57.9,50.5,45.5,93,91,84,30.12,29.72,20,8,21,0.00
2013-4-20,60.1,53.7,41.2,58.0,48.1,35.9,93,82,63,30.13,29.64,32,4,32,0.32
2013-4-21,52.7,42.7,32.7,35.9,27.2,23.7,84,55,39,30.62,30.13,14,3,14,0.00
2013-4-22,54.5,42.0,29.3,38.3,30.5,23.0,84,65,40,30.66,30.49,20,4,20,0.00
2013-4-23,46.6,44.0,41.2,43.3,40.6,33.7,93,88,74,30.49,29.91,18,5,18,1.27
2013-4-24,63.5,50.1,43.0,52.8,44.9,40.8,93,83,59,29.91,29.77,20,6,20,0.54
2013-4-25,63.1,52.7,39.0,52.0,44.9,34.1,92,76,52,30.19,29.85,15,2,15,0.03
2013-4-26,61.9,48.9,34.7,43.5,37.6,30.8,90,67,45,30.36,30.19,13,2,13,0.00
2013-4-27,39.2,39.2,39.2,33.9,33.9,33.7,81,81,81,30.35,30.35,0,0,0,0.00
2013-4-28,66.9,50.5,33.8,48.9,39.9,28.9,86,69,44,30.30,30.22,11,2,12,0.00
2013-4-29,67.3,53.8,40.3,48.5,38.7,32.2,86,60,30,30.24,30.19,12,2,12,0.00
2013-4-30,67.3,50.1,35.2,44.0,35.1,30.7,88,60,31,30.31,30.20,10,2,10,0.00
2013-5-1,66.4,50.2,35.4,52.0,41.4,30.0,89,73,52,30.42,30.30,10,2,12,0.00
2013-5-2,74.3,54.1,37.6,51.5,42.3,33.5,89,67,40,30.40,30.31,10,2,10,0.00
2013-5-4,43.7,42.1,41.4,37.3,36.3,35.2,84,80,74,30.26,30.24,4,1,5,0.00
2013-5-5,60.4,49.5,39.9,45.4,41.1,35.8,90,74,53,30.24,30.20,11,2,12,0.00
2013-5-6,64.6,51.9,44.1,52.4,45.5,40.6,89,79,62,30.23,30.13,9,2,9,0.00
2013-5-7,77.7,58.7,47.8,61.6,52.2,44.5,90,80,56,30.14,30.09,9,2,9,0.00
2013-5-8,71.6,59.7,50.5,61.6,54.9,46.8,92,84,68,30.16,29.99,12,3,12,0.04
2013-5-9,72.0,60.3,54.7,63.7,56.0,51.5,91,86,74,30.00,29.84,8,2,8,0.03
2013-5-10,77.4,65.6,54.9,62.2,55.0,50.9,89,70,54,29.93,29.84,10,2,10,0.03
2013-5-11,68.2,60.5,54.7,59.8,56.2,50.1,93,86,73,29.91,29.70,17,4,17,0.28
2013-5-12,76.5,61.8,48.0,61.9,53.0,39.9,91,74,51,29.76,29.55,14,2,14,0.29
2013-5-13,64.8,51.8,37.0,42.0,37.4,30.9,86,60,39,29.95,29.76,20,3,21,0.00
2013-5-14,65.1,51.8,45.1,42.7,36.5,30.7,72,57,37,29.99,29.91,14,2,14,0.00
2013-5-15,68.9,53.0,36.0,54.0,43.7,31.0,88,72,37,30.01,29.64,19,4,19,0.00
2013-5-16,82.9,64.2,49.1,56.8,50.3,45.7,91,64,32,29.73,29.60,14,2,14,0.00
2013-5-17,75.7,58.2,46.6,47.4,43.6,39.6,84,60,35,30.16,29.72,14,2,14,0.00
2013-5-18,71.8,57.4,42.6,55.2,47.4,38.1,88,71,47,30.26,30.16,12,2,12,0.00
2013-5-19,73.9,60.4,46.4,54.5,49.7,42.7,89,70,46,30.30,30.19,14,3,14,0.09
2013-5-20,82.8,65.5,56.7,67.8,59.1,52.5,92,81,56,30.19,29.89,10,2,10,0.31
2013-5-21,85.6,65.2,55.2,70.3,58.8,52.0,90,81,58,29.92,29.81,12,2,13,0.01
2013-5-22,75.6,61.3,52.5,64.9,56.4,49.8,92,85,68,29.91,29.85,12,2,12,0.01
2013-5-23,75.0,66.1,61.7,66.7,62.1,59.4,93,87,75,29.90,29.82,18,5,18,0.11
2013-5-24,67.6,62.4,54.0,64.0,59.9,51.7,93,91,87,29.82,29.61,22,4,22,1.54
2013-5-25,58.8,52.2,43.9,51.8,48.3,40.6,93,87,75,29.69,29.61,12,4,20,0.23
2013-5-26,65.5,50.7,41.9,46.0,41.0,37.7,89,71,44,30.03,29.67,8,1,8,0.02
2013-5-27,78.1,58.7,42.8,52.6,44.2,37.5,85,61,30,30.11,30.02,14,2,14,0.00
2013-5-28,74.1,59.1,42.4,57.9,49.3,37.9,87,71,52,30.19,30.11,11,2,12,0.00
2013-5-29,73.6,61.1,57.2,65.2,57.2,54.1,92,87,72,30.17,29.97,15,4,20,0.53
2013-5-30,91.4,71.9,60.1,73.1,64.0,57.3,92,78,52,30.03,29.97,12,2,12,0.13
2013-5-31,95.0,75.9,59.7,73.4,64.1,55.8,89,69,43,30.04,29.93,12,2,12,0.00
2013-6-1,89.1,73.0,60.6,70.9,63.1,56.3,88,72,50,29.95,29.89,14,4,15,0.00
2013-6-2,80.1,69.4,62.6,68.9,62.8,59.0,89,80,62,29.91,29.79,17,5,17,0.00
2013-6-3,67.5,64.8,63.3,65.1,62.2,60.8,93,91,88,29.82,29.74,15,3,15,2.52
2013-6-4,83.3,63.6,51.3,61.0,50.9,45.3,92,66,34,30.02,29.74,9,2,9,0.00
2013-6-5,78.3,60.8,45.7,53.8,48.0,41.4,88,65,41,30.13,30.01,11,2,12,0.00
2013-6-6,74.5,62.5,51.1,60.0,52.6,45.7,86,71,50,30.15,30.03,9,2,12,0.00
2013-6-7,65.7,58.9,57.2,63.7,55.1,50.4,94,87,75,30.05,29.70,18,4,21,1.79
2013-6-8,82.4,67.1,60.6,65.8,61.8,56.9,94,84,55,29.94,29.50,17,4,23,0.15
2013-6-9,85.1,68.7,55.6,63.4,58.2,52.6,91,71,46,30.11,29.94,10,3,14,0.01
2013-6-10,75.2,63.5,55.2,62.1,56.7,51.4,91,79,58,30.13,29.94,10,4,10,0.66
2013-6-11,80.2,66.3,56.7,70.0,62.0,53.1,94,87,63,29.94,29.49,16,3,16,1.21
2013-6-12,74.5,62.9,54.7,59.5,55.6,51.5,91,78,54,29.74,29.50,13,2,13,0.00
2013-6-13,68.7,59.4,51.8,59.7,53.3,48.4,91,81,64,29.76,29.55,15,2,15,0.28
2013-6-14,64.6,56.7,51.8,55.1,51.5,47.7,93,83,68,29.69,29.49,20,5,20,1.30
2013-6-15,83.8,65.5,52.0,57.3,52.4,46.5,91,66,35,29.90,29.68,12,2,12,0.00
2013-6-16,81.0,67.1,55.0,62.8,57.9,51.2,90,74,45,29.90,29.72,15,2,15,0.00
2013-6-17,86.4,66.7,57.9,68.3,60.0,54.4,90,80,53,29.87,29.73,10,1,18,0.00
2013-6-18,82.0,67.5,57.7,67.8,60.2,54.1,90,78,56,29.88,29.80,9,1,9,0.01
2013-6-19,81.7,64.4,54.0,58.7,54.4,48.4,91,72,41,30.10,29.78,14,3,14,0.03
2013-6-20,83.3,65.0,49.8,62.3,54.6,46.0,90,71,44,30.24,30.10,14,3,15,0.00
2013-6-21,71.8,59.2,55.4,58.6,52.3,49.2,87,78,57,30.24,30.21,10,1,10,0.00
2013-6-24,95.9,84.5,70.9,77.5,72.1,63.1,78,67,53,29.93,29.83,11,2,15,0.00
2013-6-25,91.8,77.1,66.6,73.0,67.3,62.1,88,73,52,29.87,29.71,11,2,12,0.00
2013-6-26,91.4,78.3,67.8,75.4,69.2,64.0,89,75,55,29.79,29.68,12,2,13,0.00
2013-6-27,80.6,70.6,66.9,71.1,65.8,63.3,90,85,69,29.80,29.70,8,1,8,0.01
2013-6-28,71.8,69.5,68.4,69.0,67.0,65.6,94,92,89,29.71,29.51,16,5,16,0.49
2013-6-29,76.8,70.6,68.0,71.8,67.7,66.2,94,91,81,29.72,29.49,16,4,16,1.14
2013-6-30,78.1,71.5,68.0,71.6,67.8,65.6,93,88,75,29.93,29.71,10,3,10,0.04
2013-7-1,79.2,72.3,68.7,72.8,69.1,66.3,93,90,80,30.07,29.92,12,4,12,0.15
2013-7-2,84.6,74.6,70.2,76.3,70.4,67.1,92,87,73,30.17,30.06,12,4,12,0.05
2013-7-3,89.6,77.1,70.7,75.7,71.1,67.8,92,82,61,30.18,30.13,12,3,12,0.00
2013-7-4,93.9,79.1,71.8,77.8,72.4,68.4,92,81,57,30.18,30.08,12,3,12,0.00
2013-7-5,95.0,80.0,71.1,79.2,72.1,67.0,91,78,53,30.12,30.03,12,2,12,0.00
2013-7-6,95.4,80.8,70.5,79.8,72.8,67.3,91,78,56,30.04,29.92,8,1,10,0.00
2013-7-7,94.5,80.6,70.3,78.6,72.1,67.3,91,77,55,29.97,29.87,12,1,12,0.00
2013-7-8,95.4,79.3,70.5,77.0,70.9,66.5,92,77,52,29.99,29.87,10,2,10,0.00
2013-7-9,76.8,71.9,68.2,70.4,67.1,65.0,90,85,77,30.04,29.97,6,1,6,0.01
2013-7-10,84.9,76.8,70.9,76.3,71.9,67.3,92,85,72,30.02,29.78,15,3,15,0.00
2013-7-11,78.3,74.4,71.4,72.8,70.9,68.3,93,89,81,29.85,29.76,9,2,10,0.09
2013-7-12,74.1,70.5,66.9,69.1,66.2,62.4,93,86,76,30.11,29.85,9,3,12,0.00
2013-7-13,83.5,72.6,67.1,74.6,68.0,64.1,92,86,71,30.25,30.11,4,1,5,0.06
2013-7-14,91.9,77.9,71.2,78.2,72.5,68.2,93,84,64,30.24,30.14,8,1,8,0.01
2013-7-15,97.7,81.2,70.2,77.4,72.3,67.4,92,76,50,30.14,30.04,7,1,7,0.00
2013-7-16,97.2,79.9,70.2,72.9,69.0,65.6,90,71,45,30.10,30.02,7,2,9,0.00
2013-7-17,91.8,77.8,66.6,74.5,68.9,63.1,90,75,55,30.13,29.99,10,1,10,0.00
2013-7-18,92.3,81.1,73.2,77.7,72.1,68.1,89,75,56,30.00,29.91,9,2,9,0.00
2013-7-19,95.0,82.7,74.8,80.3,75.3,71.9,91,79,58,29.92,29.73,14,3,14,0.00
2013-7-20,93.0,81.4,74.5,77.9,74.1,69.3,91,79,60,29.74,29.63,12,3,14,0.00
2013-7-21,88.5,75.9,68.5,74.4,69.1,63.8,89,80,57,29.94,29.74,5,0,5,0.04
2013-7-22,83.1,73.5,68.0,72.3,67.8,64.0,91,83,65,29.95,29.82,6,1,6,0.00
2013-7-23,87.1,77.8,71.2,77.9,72.8,68.5,93,85,70,29.82,29.51,17,3,17,0.01
2013-7-24,94.8,79.3,68.5,77.3,71.0,63.7,91,77,49,29.84,29.52,10,2,10,0.08
2013-7-25,69.3,65.7,62.6,64.5,60.1,57.5,91,82,76,29.98,29.84,13,4,13,0.25
2013-7-26,66.9,65.0,63.0,64.2,62.5,60.3,93,92,90,29.96,29.80,16,4,16,1.18
2013-7-27,84.6,73.2,63.0,72.9,66.9,60.6,94,82,58,30.02,29.96,13,2,13,0.01
2013-7-28,82.8,74.6,67.6,76.7,69.5,64.0,92,84,71,29.98,29.88,8,2,8,0.19
2013-7-29,85.3,74.9,66.2,75.3,69.4,63.2,92,84,70,29.99,29.93,8,3,12,0.00
2013-7-30,91.6,73.3,65.5,68.6,64.1,60.3,91,75,47,30.03,29.95,9,1,9,0.00
2013-7-31,86.7,71.2,59.7,68.8,61.1,56.3,90,72,46,30.07,30.01,11,1,12,0.00
2013-8-1,82.8,71.7,61.9,68.9,63.7,58.0,89,77,56,30.01,29.85,12,2,12,0.05
2013-8-2,90.0,72.2,64.9,73.5,66.0,61.0,91,82,51,29.85,29.74,8,1,8,0.74
2013-8-3,80.4,70.3,66.6,69.1,65.1,62.1,91,84,66,29.84,29.75,9,1,9,0.03
2013-8-4,85.8,69.0,57.6,68.5,60.5,54.2,89,76,53,29.81,29.71,6,1,6,0.06
2013-8-5,84.6,65.7,54.7,59.5,54.2,49.3,89,69,39,29.98,29.80,8,1,8,0.01
2013-8-6,82.6,65.2,50.4,62.6,54.7,46.3,88,71,48,30.11,29.98,8,1,8,0.00
2013-8-7,81.0,66.2,51.3,64.4,54.7,47.5,88,69,43,30.14,30.09,9,1,9,0.00
2013-8-8,83.7,72.9,60.8,71.2,64.8,52.1,88,76,61,30.10,30.00,15,4,15,0.01
2013-8-9,75.0,73.0,70.2,71.4,69.7,66.6,93,90,86,30.03,29.74,20,6,21,0.26
2013-8-10,87.3,75.2,63.0,69.9,66.3,57.7,92,75,47,29.95,29.74,12,1,13,0.00
2013-8-11,81.3,68.4,57.6,61.4,56.6,53.0,87,68,44,30.02,29.94,10,1,10,0.00
2013-8-12,80.8,70.1,59.4,70.0,63.0,54.5,90,79,63,30.00,29.88,12,2,12,0.00
2013-8-13,73.9,69.2,65.7,69.3,65.4,62.3,90,88,82,29.88,29.62,8,1,8,0.11
2013-8-14,79.0,68.0,59.4,62.3,57.6,51.4,91,72,46,29.89,29.61,4,1,7,0.01
2013-8-15,79.9,65.8,53.1,57.5,52.6,48.5,86,65,38,30.08,29.89,9,1,9,0.00
2013-8-16,81.7,68.4,55.8,63.2,56.6,50.8,87,68,41,30.15,30.06,15,2,15,0.00
2013-8-17,81.0,68.2,56.1,64.9,59.4,52.1,89,75,54,30.23,30.14,7,1,7,0.00
2013-8-18,78.6,66.6,57.2,67.8,59.5,53.7,90,79,59,30.22,30.03,5,0,5,0.11
2013-8-19,82.8,69.3,56.1,68.9,61.8,52.6,90,78,55,30.03,29.90,8,1,8,0.01
2013-8-20,85.3,73.5,64.0,70.6,64.3,58.9,90,74,54,30.04,29.91,11,1,11,0.01
2013-8-21,89.4,73.5,60.8,70.9,64.0,56.9,91,74,48,30.09,29.99,11,2,12,0.00
2013-8-22,83.5,73.7,66.6,73.5,67.9,61.6,91,82,71,30.00,29.80,11,3,12,0.00
2013-8-23,77.2,70.8,59.5,67.9,61.4,53.5,90,73,53,30.03,29.76,15,2,15,0.00
2013-8-24,74.5,64.1,50.7,57.7,52.6,45.1,88,68,42,30.28,30.03,14,2,15,0.00
2013-8-25,82.0,64.9,48.0,62.2,53.4,43.6,90,69,41,30.30,30.17,11,2,12,0.00
2013-8-26,79.0,70.0,59.5,67.1,62.8,53.0,86,78,65,30.17,29.84,13,2,14,0.00
2013-8-27,74.5,69.9,66.7,70.4,66.3,64.0,91,88,85,29.84,29.78,7,1,7,0.42
2013-8-28,78.3,69.0,64.8,69.3,64.6,61.4,92,86,72,29.89,29.80,8,2,8,0.01
2013-8-29,70.9,65.2,58.6,64.8,61.3,54.8,92,87,78,29.98,29.87,12,3,12,0.00
2013-8-30,77.0,66.9,56.8,67.5,61.5,53.1,91,83,71,29.95,29.80,7,1,7,0.00
2013-8-31,78.1,71.8,67.1,71.4,67.9,64.4,92,88,78,29.82,29.78,14,3,14,0.00
2013-9-1,78.1,72.9,70.3,73.4,69.4,67.5,92,89,84,29.85,29.78,10,2,10,0.79
2013-9-2,82.0,73.8,70.7,74.7,70.0,67.9,92,88,78,29.83,29.68,13,3,13,0.01
2013-9-3,81.9,72.3,66.6,74.6,68.4,63.7,91,88,74,29.76,29.64,10,1,10,1.46
2013-9-4,80.1,67.6,58.8,66.3,60.7,55.9,91,80,58,29.88,29.74,10,1,10,0.00
2013-9-5,72.5,62.6,51.1,67.3,57.7,47.3,91,84,73,30.05,29.82,10,1,10,0.03
2013-9-6,69.8,57.6,48.4,55.7,48.7,43.6,90,74,49,30.16,30.05,6,0,6,0.00
2013-9-7,75.4,60.9,45.3,59.1,51.7,41.7,90,73,48,30.05,29.82,6,1,6,0.00
2013-9-8,79.5,66.7,56.8,65.8,56.8,43.7,88,71,58,30.01,29.68,7,1,7,0.00
2013-9-9,70.2,58.4,44.8,53.2,47.6,39.8,86,69,47,30.18,30.01,3,0,3,0.00
2013-9-10,74.1,66.8,58.1,65.2,59.5,51.8,87,78,69,30.13,30.01,10,1,10,0.00
2013-9-11,85.8,75.0,67.8,75.6,69.1,64.8,91,82,69,30.05,29.94,10,2,10,0.00
2013-9-12,82.6,73.7,68.9,73.0,68.5,65.8,91,84,71,29.97,29.66,11,3,12,0.00
2013-9-13,72.0,69.9,68.7,68.5,66.7,65.2,91,90,88,29.66,29.54,8,1,9,1.14
2013-9-16,72.0,58.3,55.9,68.5,52.0,46.1,89,80,69,30.12,29.55,8,1,8,1.20
2013-9-17,59.7,52.6,41.7,46.7,41.7,36.9,84,67,51,30.32,30.12,12,3,12,0.00
2013-9-18,71.4,54.3,40.1,52.5,44.4,35.5,89,72,40,30.26,30.09,8,1,8,0.00
2013-9-19,88.9,60.0,43.9,66.7,52.0,40.3,90,76,47,30.10,29.99,7,0,7,0.00
2013-9-20,81.3,62.9,51.4,63.8,54.8,48.2,91,76,50,30.03,29.96,1,0,1,0.01
2013-9-21,79.2,66.5,54.9,66.9,60.8,50.4,91,82,62,29.99,29.72,8,1,8,0.02
2013-9-22,73.0,67.2,53.6,66.8,62.5,48.9,91,85,77,29.74,29.60,11,2,12,0.11
2013-9-23,65.1,54.5,46.2,50.0,46.2,41.8,85,74,57,29.92,29.73,7,1,7,0.01
2013-9-24,65.3,52.9,42.4,50.7,44.9,38.1,86,75,57,29.92,29.76,5,0,5,0.00
2013-9-25,65.5,54.7,44.6,53.4,47.2,41.0,89,77,58,29.91,29.81,7,1,7,0.00
2013-9-26,64.2,56.4,50.2,51.8,49.0,44.9,86,77,61,30.04,29.90,7,1,8,0.00
2013-9-27,64.8,58.1,48.6,56.0,51.8,44.3,87,80,70,30.19,30.03,8,2,8,0.00
2013-9-28,72.0,56.5,45.9,60.4,50.5,42.3,92,81,66,30.24,30.17,5,0,6,0.00
2013-9-29,70.0,55.5,43.3,57.4,49.6,39.6,92,81,62,30.19,30.03,7,1,7,0.00
2013-9-30,68.9,59.6,51.4,59.6,54.5,47.6,91,83,70,30.03,29.89,7,1,7,0.00
2013-10-1,72.9,59.0,49.6,57.2,51.0,46.2,91,76,52,29.89,29.79,7,1,7,0.00
2013-10-2,80.4,64.5,52.9,65.9,57.5,48.7,91,79,60,29.89,29.76,7,0,8,0.00
2013-10-3,79.7,64.0,53.4,60.0,54.9,48.4,88,74,48,30.02,29.89,5,0,6,0.00
2013-10-4,74.5,58.6,49.3,63.8,53.3,45.1,90,83,68,30.01,29.95,5,0,5,0.01
2013-10-5,69.8,61.7,56.1,63.0,57.4,52.0,90,86,78,30.06,29.98,4,0,5,0.08
2013-10-6,64.2,59.7,56.3,59.3,55.9,53.0,90,87,77,30.14,30.04,5,1,6,0.13
2013-10-7,74.3,68.6,63.0,69.3,64.6,59.3,90,87,83,30.06,29.82,12,3,12,0.35
2013-10-8,66.6,58.2,47.1,62.9,51.0,42.8,88,78,56,30.28,29.83,9,1,9,0.14
2013-10-9,64.4,55.1,46.8,50.1,46.3,42.5,87,73,58,30.36,30.27,12,2,13,0.00
2013-10-10,69.3,58.8,50.2,59.5,53.3,44.7,89,82,70,30.27,30.06,8,2,8,0.00
2013-10-11,67.8,60.4,53.6,60.7,55.6,49.8,89,84,75,30.06,30.01,10,2,10,0.00
2013-10-12,66.2,58.9,53.8,57.9,53.2,48.6,88,82,72,30.29,30.05,12,2,13,0.00
2013-10-13,62.6,53.3,41.4,50.1,46.0,36.8,86,77,61,30.35,30.27,9,2,9,0.00
2013-10-14,64.4,49.0,37.6,52.6,43.0,33.9,89,80,64,30.33,30.20,5,0,5,0.00
2013-10-15,67.3,52.7,41.7,56.5,46.7,38.1,89,80,61,30.21,30.10,5,0,5,0.00
2013-10-16,61.9,55.7,46.8,58.0,52.0,42.8,89,87,85,30.10,29.83,7,1,7,0.00
2013-10-17,73.4,62.9,57.2,64.6,57.4,52.7,87,82,72,29.84,29.69,6,1,7,0.00
2013-10-18,72.5,62.9,47.8,61.1,54.4,42.9,84,75,52,29.86,29.59,8,1,8,0.02
2013-10-19,66.6,53.8,41.5,52.1,45.9,37.4,86,76,52,29.94,29.71,7,1,7,0.01
2013-10-20,65.1,56.0,40.3,54.0,45.5,34.3,85,70,42,29.96,29.65,5,1,5,0.01
2013-10-21,67.6,50.7,37.0,48.5,41.4,32.7,86,72,46,30.06,29.96,8,1,8,0.00
2013-10-22,68.0,56.1,45.7,57.7,49.4,41.1,87,79,68,29.97,29.65,6,1,6,0.00
2013-10-23,54.5,47.9,40.3,46.4,41.5,35.4,86,79,62,29.73,29.51,3,0,4,0.22
2013-10-24,55.6,44.7,38.1,40.1,35.8,31.3,88,72,49,29.83,29.56,7,0,7,0.00
2013-10-25,57.2,42.7,34.7,38.7,32.7,27.8,83,69,48,30.11,29.83,4,0,5,0.00
2013-10-26,60.1,45.7,30.4,44.6,35.8,25.8,87,70,51,30.11,29.82,12,2,12,0.00
2013-10-27,60.8,51.2,38.5,44.3,38.5,29.9,78,62,48,30.01,29.76,7,1,7,0.01
2013-10-28,60.3,46.4,32.7,43.9,35.9,27.5,86,68,48,30.26,30.01,10,1,13,0.00
2013-10-29,53.6,44.5,36.3,40.3,35.3,28.8,85,70,59,30.33,30.25,6,1,6,0.00
2013-10-30,54.9,44.5,33.1,48.3,39.8,28.5,87,83,78,30.31,30.14,2,0,2,0.02
2013-10-31,63.3,53.7,39.7,58.4,49.2,35.9,89,85,76,30.18,29.83,9,2,9,0.00
2013-11-1,69.6,64.0,60.3,63.9,59.0,55.1,87,84,79,29.83,29.49,17,5,17,0.05
2013-11-2,64.0,57.8,52.7,57.0,52.5,48.0,85,83,75,29.66,29.53,5,0,5,0.06
2013-11-3,53.8,46.7,39.0,48.9,40.4,30.1,85,79,67,30.28,29.64,15,3,15,0.11
2013-11-4,45.7,40.8,35.6,32.6,28.8,26.4,75,62,53,30.63,30.28,14,3,14,0.00
2013-11-5,52.7,41.4,35.4,40.2,33.5,28.6,84,74,57,30.63,30.47,6,0,7,0.00
2013-11-6,59.5,48.8,35.8,50.9,43.2,31.4,85,81,70,30.47,30.03,14,2,14,0.00
2013-11-7,63.5,56.7,44.8,57.6,51.5,39.9,85,83,80,30.03,29.61,17,3,17,0.99
2013-11-8,51.6,42.7,35.2,39.9,32.8,25.7,83,69,52,30.03,29.74,7,1,7,0.00
2013-11-9,47.7,39.1,32.7,31.9,28.1,25.5,77,65,46,30.14,30.01,8,0,8,0.00
2013-11-10,59.2,47.9,38.3,49.3,40.9,31.4,83,77,63,30.01,29.66,9,1,9,0.06
2013-11-11,53.1,46.3,38.1,44.8,34.9,29.9,77,65,48,30.03,29.81,12,2,13,0.01
2013-11-12,52.9,39.3,29.3,45.2,33.2,24.8,85,79,66,30.10,29.81,13,1,13,0.17
2013-11-13,38.5,30.5,25.9,26.1,21.6,18.8,83,70,53,30.21,30.09,10,1,10,0.05
2013-11-14,51.4,39.8,24.6,35.8,29.5,18.3,84,67,47,30.15,30.00,10,1,10,0.01
2013-11-15,60.6,49.4,40.1,47.8,40.5,31.6,83,72,55,30.16,30.08,11,2,12,0.00
2013-11-16,61.5,45.9,35.2,45.6,38.0,29.9,86,75,51,30.27,30.15,9,0,9,0.00
2013-11-17,57.4,48.6,34.9,52.1,43.8,30.1,87,83,72,30.26,29.83,10,2,10,0.28
2013-11-18,64.2,56.5,44.1,56.7,50.3,39.5,85,80,67,29.83,29.52,19,4,19,0.32
2013-11-19,47.1,40.9,34.5,39.8,28.9,21.6,85,63,42,30.20,29.60,13,2,14,0.00
2013-11-20,41.2,33.7,27.5,26.7,22.3,19.2,76,63,51,30.53,30.19,14,2,14,0.00
2013-11-21,50.0,35.8,25.5,36.2,27.7,20.0,83,73,56,30.56,30.34,7,1,7,0.00
2013-11-22,53.6,47.0,36.7,48.8,42.3,31.1,86,84,80,30.34,29.76,8,1,8,0.22
2013-11-23,49.6,44.0,33.3,43.9,32.2,20.2,84,64,41,29.81,29.71,9,1,9,0.01
2013-11-24,33.1,26.9,22.6,20.3,8.0,-0.3,60,45,31,30.10,29.71,16,2,16,0.00
2013-11-25,34.0,25.1,18.9,16.8,6.4,0.8,68,45,30,30.32,30.09,8,1,8,0.00
2013-11-26,49.1,42.7,26.2,43.0,34.1,17.4,85,72,59,30.27,29.98,11,2,12,0.10
2013-11-27,59.9,53.6,43.7,52.8,47.8,38.7,84,81,77,29.98,29.07,27,6,27,1.77
2013-11-28,43.5,34.1,26.2,39.0,23.4,15.5,84,65,45,30.37,29.41,6,1,10,0.00
2013-11-29,38.5,30.2,25.7,22.2,18.0,15.5,76,61,45,30.64,30.36,8,1,8,0.00
2013-11-30,40.8,30.1,20.5,29.2,20.4,13.5,78,68,50,30.69,30.39,8,1,8,0.00
2013-12-1,48.6,44.4,37.2,43.1,38.4,29.4,84,79,73,30.39,29.89,12,3,12,0.03
2013-12-2,47.5,42.9,40.8,42.6,38.2,36.1,84,83,82,29.90,29.81,6,1,6,0.00
2013-12-3,44.8,40.5,32.9,39.1,35.9,28.6,85,83,80,29.86,29.74,14,2,14,0.00
2013-12-4,48.2,36.6,30.4,36.0,30.2,25.8,85,78,60,30.13,29.86,9,0,9,0.01
2013-12-5,53.2,44.9,30.0,47.2,40.0,25.5,84,83,79,30.14,29.89,11,2,12,0.00
2013-12-6,58.1,50.8,39.9,49.9,44.0,33.9,82,78,73,30.03,29.82,13,3,13,0.31
2013-12-7,42.4,37.2,30.9,35.6,30.5,23.6,82,76,67,30.37,29.96,10,2,10,0.36
2013-12-8,36.3,31.8,25.9,26.1,23.7,19.7,79,72,63,30.50,30.36,7,1,7,0.00
2013-12-9,48.2,40.4,33.1,40.6,33.6,24.5,82,77,69,30.39,29.78,17,2,17,0.45
2013-12-10,39.7,34.2,27.0,33.8,28.2,22.2,83,78,76,29.93,29.70,6,0,6,0.03
2013-12-11,37.8,29.2,23.2,27.3,22.4,18.5,82,76,61,30.17,29.93,9,0,9,0.08
2013-12-12,28.9,23.3,13.5,21.5,12.3,4.8,83,64,37,30.18,30.02,14,1,14,0.00
2013-12-13,34.2,24.8,13.5,19.5,14.8,8.4,81,66,47,30.25,29.93,8,1,8,0.01
2013-12-14,33.3,25.9,20.7,26.7,18.8,10.2,83,74,61,30.48,30.03,17,3,17,0.00
2013-12-15,49.6,36.5,28.4,41.7,30.5,23.3,83,79,74,30.03,29.22,22,3,22,0.12
2013-12-16,33.4,27.6,18.3,24.4,17.1,10.8,83,66,42,30.14,29.70,10,1,10,0.01
2013-12-17,40.3,26.3,14.5,34.7,19.6,8.8,83,76,59,30.18,29.76,12,2,12,0.04
2013-12-18,37.2,31.9,24.8,31.1,25.0,20.4,84,76,62,30.03,29.66,17,2,17,0.03
2013-12-19,47.7,37.1,27.3,37.4,29.6,21.7,80,74,64,30.06,29.90,16,2,16,0.02
2013-12-20,54.9,43.3,31.6,46.2,37.2,26.8,84,79,65,30.07,29.90,11,3,14,0.00
2013-12-21,59.0,53.3,48.2,51.4,47.5,43.0,83,81,75,29.95,29.86,21,4,21,0.00
2013-12-22,60.4,55.3,46.0,52.1,48.2,39.2,81,77,73,29.94,29.79,19,5,19,0.00
2013-12-23,47.5,44.1,39.6,40.6,36.4,31.8,78,74,70,29.99,29.85,12,2,12,0.54
2013-12-24,41.4,35.5,29.8,32.7,28.0,22.5,79,74,69,30.11,29.92,16,3,16,0.15
2013-12-25,29.8,23.8,21.0,23.0,14.6,7.5,77,68,56,30.47,30.11,14,2,14,0.01
2013-12-26,41.9,32.6,20.8,34.9,26.7,14.2,81,79,74,30.42,29.97,11,1,12,0.14
2013-12-27,39.2,30.3,25.0,28.5,23.3,19.6,82,75,60,30.21,30.12,7,0,7,0.01
2013-12-28,49.5,34.5,22.1,37.4,27.4,17.3,83,75,59,30.18,29.94,18,2,18,0.00
2013-12-29,54.9,41.1,30.6,43.3,34.4,25.4,82,77,65,29.99,29.22,18,2,18,1.00
2013-12-30,44.8,37.5,28.2,38.1,28.7,18.3,79,70,56,30.05,29.36,14,1,14,0.01
2013-12-31,30.6,25.0,18.9,19.7,14.8,11.8,81,65,50,30.12,29.95,10,1,10,0.00
2014-1-1,32.7,25.7,20.5,18.1,14.4,9.7,76,62,45,30.31,30.12,8,0,8,0.00
2014-1-2,33.6,29.2,25.9,28.5,23.6,18.1,82,79,70,30.28,29.59,19,4,20,0.00